createdAt,value
2018-02-25T00:01:35.097Z,-2.10
2018-02-25T00:04:02.698Z,-2.00
2018-02-25T00:06:31.059Z,-2.00
2018-02-25T00:08:58.788Z,-2.10
2018-02-25T00:11:26.442Z,-2.00
2018-02-25T00:13:54.079Z,-2.00
2018-02-25T00:16:21.684Z,-2.00
2018-02-25T00:18:49.432Z,-2.10
2018-02-25T00:21:16.997Z,-2.20
2018-02-25T00:23:44.649Z,-2.20
2018-02-25T00:26:12.253Z,-2.20
2018-02-25T00:28:40.793Z,-2.20
2018-02-25T00:31:08.557Z,-2.20
2018-02-25T00:33:36.976Z,-2.10
2018-02-25T00:36:04.590Z,-2.20
2018-02-25T00:38:32.375Z,-2.10
2018-02-25T00:41:00.024Z,-2.20
2018-02-25T00:43:27.685Z,-2.20
2018-02-25T00:45:55.472Z,-2.30
2018-02-25T00:48:23.117Z,-2.40
2018-02-25T00:50:50.768Z,-2.40
2018-02-25T00:53:18.407Z,-2.40
2018-02-25T00:55:46.003Z,-2.40
2018-02-25T00:58:13.755Z,-2.40
2018-02-25T01:00:41.469Z,-2.40
2018-02-25T01:03:09.076Z,-2.40
2018-02-25T01:05:36.737Z,-1.50
2018-02-25T01:08:04.406Z,-2.50
2018-02-25T01:10:31.983Z,-2.50
2018-02-25T01:12:59.587Z,-2.50
2018-02-25T01:15:27.307Z,-2.50
2018-02-25T01:17:54.892Z,-2.50
2018-02-25T01:20:22.482Z,-2.50
2018-02-25T01:22:50.175Z,-2.60
2018-02-25T01:25:17.807Z,-2.60
2018-02-25T01:27:45.387Z,-2.70
2018-02-25T01:30:13.033Z,-2.60
2018-02-25T01:32:40.635Z,-2.50
2018-02-25T01:35:08.284Z,-2.70
2018-02-25T01:37:35.862Z,-2.70
2018-02-25T01:40:03.597Z,-2.70
2018-02-25T01:42:31.142Z,-2.70
2018-02-25T01:44:58.803Z,-2.70
2018-02-25T01:47:26.468Z,-2.70
2018-02-25T01:49:54.087Z,-2.70
2018-02-25T01:52:21.706Z,-2.70
2018-02-25T01:54:49.380Z,-2.70
2018-02-25T01:57:17.120Z,-2.60
2018-02-25T01:59:44.734Z,-2.60
2018-02-25T02:02:13.119Z,-2.60
2018-02-25T02:04:41.523Z,-2.60
2018-02-25T02:07:09.132Z,-2.60
2018-02-25T02:09:36.954Z,-2.60
2018-02-25T02:12:04.503Z,-2.60
2018-02-25T02:14:32.071Z,-2.70
2018-02-25T02:16:59.648Z,-2.70
2018-02-25T02:19:27.268Z,-2.70
2018-02-25T02:21:54.927Z,-2.70
2018-02-25T02:24:22.617Z,-2.80
2018-02-25T02:26:50.302Z,-2.80
2018-02-25T02:29:17.854Z,-2.80
2018-02-25T02:31:45.457Z,-2.80
2018-02-25T02:34:13.053Z,-2.80
2018-02-25T02:36:40.703Z,-2.80
2018-02-25T02:39:08.284Z,-2.90
2018-02-25T02:41:35.881Z,-2.90
2018-02-25T02:44:04.341Z,-2.80
2018-02-25T02:46:31.962Z,-2.80
2018-02-25T02:48:59.656Z,-2.80
2018-02-25T02:51:27.304Z,-2.90
2018-02-25T02:53:54.899Z,-2.90
2018-02-25T02:56:24.219Z,-2.90
2018-02-25T02:58:51.859Z,-2.90
2018-02-25T03:01:19.523Z,-2.90
2018-02-25T03:03:47.277Z,-2.90
2018-02-25T03:06:14.946Z,-2.90
2018-02-25T03:08:42.633Z,-2.80
2018-02-25T03:11:10.373Z,-2.80
2018-02-25T03:13:38.699Z,-2.70
2018-02-25T03:16:06.318Z,-2.80
2018-02-25T03:18:34.801Z,-2.60
2018-02-25T03:21:03.186Z,-2.70
2018-02-25T03:23:31.527Z,-2.70
2018-02-25T03:25:59.688Z,-2.70
2018-02-25T03:28:27.308Z,-2.70
2018-02-25T03:30:55.014Z,-2.60
2018-02-25T03:33:22.790Z,-2.70
2018-02-25T03:35:50.341Z,-2.70
2018-02-25T03:38:17.987Z,-2.60
2018-02-25T03:40:45.678Z,-2.60
2018-02-25T03:43:13.303Z,-2.50
2018-02-25T03:45:40.921Z,-2.50
2018-02-25T03:48:09.458Z,-2.50
2018-02-25T03:50:37.324Z,-2.60
2018-02-25T03:53:04.967Z,-2.50
2018-02-25T03:55:32.611Z,-2.50
2018-02-25T03:58:01.047Z,-2.60
2018-02-25T04:00:28.616Z,-2.60
2018-02-25T04:02:56.180Z,-2.60
2018-02-25T04:05:23.791Z,-2.60
2018-02-25T04:07:51.474Z,-2.60
2018-02-25T04:10:19.246Z,-2.70
2018-02-25T04:12:46.909Z,-2.70
2018-02-25T04:15:14.570Z,-2.60
2018-02-25T04:17:42.231Z,-2.60
2018-02-25T04:20:09.856Z,-2.60
2018-02-25T04:22:37.407Z,-2.60
2018-02-25T04:25:05.834Z,-2.60
2018-02-25T04:27:33.446Z,-2.70
2018-02-25T04:30:01.908Z,-2.80
2018-02-25T04:32:29.493Z,-2.90
2018-02-25T04:34:57.824Z,-2.90
2018-02-25T04:37:25.401Z,-3.00
2018-02-25T04:39:53.142Z,-3.00
2018-02-25T04:42:20.710Z,-3.00
2018-02-25T04:44:48.310Z,-3.00
2018-02-25T04:47:15.915Z,-3.00
2018-02-25T04:49:43.580Z,-3.00
2018-02-25T04:52:11.185Z,-3.00
2018-02-25T04:54:38.901Z,-2.90
2018-02-25T04:57:06.547Z,-3.00
2018-02-25T04:59:34.308Z,-2.90
2018-02-25T05:02:01.856Z,-2.90
2018-02-25T05:04:29.531Z,-2.90
2018-02-25T05:06:57.130Z,-2.90
2018-02-25T05:09:25.579Z,-2.80
2018-02-25T05:11:53.142Z,-2.90
2018-02-25T05:14:20.894Z,-2.90
2018-02-25T05:16:48.466Z,-2.90
2018-02-25T05:19:16.091Z,-2.90
2018-02-25T05:21:43.841Z,-2.80
2018-02-25T05:24:11.542Z,-2.80
2018-02-25T05:26:39.163Z,-2.80
2018-02-25T05:29:07.684Z,-2.80
2018-02-25T05:31:35.435Z,-2.80
2018-02-25T05:34:03.018Z,-2.70
2018-02-25T05:36:30.638Z,-2.50
2018-02-25T05:38:58.291Z,-2.40
2018-02-25T05:41:25.922Z,-2.40
2018-02-25T05:43:53.521Z,-2.40
2018-02-25T05:46:21.118Z,-2.30
2018-02-25T05:48:48.677Z,-2.40
2018-02-25T05:51:16.241Z,-2.40
2018-02-25T05:53:43.799Z,-2.40
2018-02-25T05:56:11.412Z,-2.30
2018-02-25T05:58:39.031Z,-2.30
2018-02-25T06:01:07.484Z,-2.20
2018-02-25T06:03:35.063Z,-2.30
2018-02-25T06:06:02.831Z,-2.10
2018-02-25T06:08:30.361Z,-2.30
2018-02-25T06:10:58.032Z,-2.40
2018-02-25T06:13:25.585Z,-2.40
2018-02-25T06:15:53.145Z,-2.40
2018-02-25T06:18:20.911Z,-2.40
2018-02-25T06:20:48.601Z,-2.50
2018-02-25T06:23:16.175Z,-2.50
2018-02-25T06:25:43.895Z,-2.60
2018-02-25T06:28:11.509Z,-2.50
2018-02-25T06:30:39.979Z,-2.40
2018-02-25T06:33:07.701Z,-2.50
2018-02-25T06:35:35.495Z,-2.30
2018-02-25T06:38:03.090Z,-4.20
2018-02-25T06:40:31.497Z,-2.20
2018-02-25T06:42:59.044Z,-2.20
2018-02-25T06:45:26.626Z,-2.10
2018-02-25T06:47:54.296Z,-2.00
2018-02-25T06:50:21.857Z,-2.00
2018-02-25T06:52:49.520Z,-2.00
2018-02-25T06:55:17.177Z,-2.00
2018-02-25T06:57:44.785Z,-2.00
2018-02-25T07:00:12.484Z,-2.00
2018-02-25T07:02:40.093Z,-2.00
2018-02-25T07:05:07.664Z,-2.00
2018-02-25T07:07:35.315Z,-2.00
2018-02-25T07:10:03.742Z,-2.10
2018-02-25T07:12:31.301Z,-2.10
2018-02-25T07:14:58.891Z,-2.00
2018-02-25T07:17:26.451Z,-2.00
2018-02-25T07:19:54.044Z,-2.00
2018-02-25T07:22:22.559Z,-1.60
2018-02-25T07:24:50.173Z,-1.70
2018-02-25T07:27:19.009Z,-1.40
2018-02-25T07:29:46.702Z,-1.40
2018-02-25T07:32:14.285Z,-1.40
2018-02-25T07:34:42.672Z,-1.40
2018-02-25T07:37:10.343Z,-1.50
2018-02-25T07:39:37.936Z,-1.50
2018-02-25T07:42:05.558Z,-1.50
2018-02-25T07:44:33.357Z,-1.60
2018-02-25T07:47:00.967Z,-1.40
2018-02-25T07:49:29.339Z,-1.30
2018-02-25T07:51:56.954Z,-1.40
2018-02-25T07:54:24.556Z,-1.10
2018-02-25T07:56:52.140Z,-1.10
2018-02-25T07:59:20.571Z,-1.10
2018-02-25T08:01:48.144Z,-1.20
2018-02-25T08:04:15.737Z,-1.20
2018-02-25T08:06:44.161Z,-1.40
2018-02-25T08:09:11.915Z,-1.40
2018-02-25T08:11:39.505Z,-1.30
2018-02-25T08:14:07.191Z,-1.20
2018-02-25T08:16:35.641Z,-1.10
2018-02-25T08:19:03.251Z,-1.10
2018-02-25T08:21:30.898Z,-0.90
2018-02-25T08:23:58.579Z,-0.90
2018-02-25T08:26:26.220Z,-1.00
2018-02-25T08:28:53.912Z,-1.10
2018-02-25T08:31:21.547Z,-1.00
2018-02-25T08:33:49.212Z,-1.00
2018-02-25T08:36:16.903Z,-1.00
2018-02-25T08:38:44.559Z,-1.20
2018-02-25T08:41:12.159Z,-1.20
2018-02-25T08:43:39.849Z,-1.00
2018-02-25T08:46:07.407Z,-0.90
2018-02-25T08:48:35.836Z,-0.60
2018-02-25T08:51:03.500Z,-0.70
2018-02-25T08:53:31.076Z,-0.90
2018-02-25T08:55:58.712Z,-1.00
2018-02-25T08:58:26.329Z,-1.20
2018-02-25T09:00:54.130Z,-1.20
2018-02-25T09:03:21.825Z,-1.20
2018-02-25T09:05:49.452Z,-1.30
2018-02-25T09:08:17.077Z,-1.50
2018-02-25T09:10:45.484Z,-1.20
2018-02-25T09:13:13.067Z,-1.30
2018-02-25T09:15:40.666Z,-1.20
2018-02-25T09:18:09.089Z,-1.00
2018-02-25T09:20:36.743Z,-1.00
2018-02-25T09:23:04.378Z,-1.00
2018-02-25T09:25:32.058Z,-1.20
2018-02-25T09:27:59.704Z,-1.30
2018-02-25T09:30:27.450Z,-1.40
2018-02-25T09:32:55.801Z,-1.70
2018-02-25T09:35:23.536Z,-1.70
2018-02-25T09:37:51.238Z,-1.70
2018-02-25T09:40:19.612Z,-1.50
2018-02-25T09:42:47.853Z,-1.30
2018-02-25T09:45:15.289Z,-1.40
2018-02-25T09:47:42.744Z,-1.40
2018-02-25T09:50:10.181Z,-1.50
2018-02-25T09:52:38.451Z,-1.50
2018-02-25T09:55:06.703Z,-1.50
2018-02-25T09:57:34.130Z,-1.60
2018-02-25T10:00:01.599Z,-1.60
2018-02-25T10:02:29.015Z,-1.60
2018-02-25T10:04:56.474Z,-1.30
2018-02-25T10:07:23.955Z,-0.90
2018-02-25T10:09:51.400Z,-0.80
2018-02-25T10:12:18.850Z,-0.60
2018-02-25T10:14:46.299Z,-0.50
2018-02-25T10:17:13.733Z,-0.40
2018-02-25T10:19:41.936Z,-0.30
2018-02-25T10:22:09.547Z,-0.40
2018-02-25T10:24:37.181Z,-0.10
2018-02-25T10:27:04.761Z,-0.40
2018-02-25T10:29:32.353Z,-0.80
2018-02-25T10:31:59.838Z,-0.60
2018-02-25T10:34:27.294Z,-0.70
2018-02-25T10:36:54.730Z,-0.60
2018-02-25T10:39:23.137Z,-0.60
2018-02-25T10:41:50.579Z,-0.70
2018-02-25T10:44:18.014Z,-0.50
2018-02-25T10:46:46.246Z,-0.50
2018-02-25T10:49:13.698Z,-0.50
2018-02-25T10:51:41.162Z,-0.20
2018-02-25T10:54:08.591Z,0.00
2018-02-25T10:56:36.241Z,-0.20
2018-02-25T10:59:03.869Z,-0.20
2018-02-25T11:01:32.295Z,-0.20
2018-02-25T11:03:59.902Z,-0.20
2018-02-25T11:06:28.307Z,-0.10
2018-02-25T11:08:56.657Z,0.10
2018-02-25T11:11:24.215Z,0.00
2018-02-25T11:13:51.827Z,0.20
2018-02-25T11:16:19.484Z,-0.10
2018-02-25T11:18:47.093Z,-0.10
2018-02-25T11:21:14.630Z,0.20
2018-02-25T11:23:42.233Z,0.10
2018-02-25T11:26:10.600Z,-0.30
2018-02-25T11:28:39.010Z,-0.40
2018-02-25T11:31:06.600Z,-0.50
2018-02-25T11:33:34.272Z,-0.50
2018-02-25T11:36:01.914Z,-0.60
2018-02-25T11:38:29.581Z,-0.50
2018-02-25T11:40:57.240Z,-0.40
2018-02-25T11:43:24.940Z,-0.30
2018-02-25T11:45:52.612Z,-0.20
2018-02-25T11:48:20.138Z,-0.40
2018-02-25T11:50:47.719Z,-0.80
2018-02-25T11:53:15.242Z,-0.80
2018-02-25T11:55:42.853Z,-0.70
2018-02-25T11:58:10.308Z,-1.10
2018-02-25T12:00:38.528Z,-0.60
2018-02-25T12:03:06.002Z,-0.70
2018-02-25T12:05:33.442Z,-0.60
2018-02-25T12:08:00.921Z,-0.50
2018-02-25T12:10:28.456Z,-0.40
2018-02-25T12:12:55.873Z,-0.40
2018-02-25T12:15:24.190Z,-0.50
2018-02-25T12:17:51.628Z,-0.50
2018-02-25T12:20:19.813Z,-0.50
2018-02-25T12:22:47.240Z,-0.60
2018-02-25T12:25:15.484Z,-0.50
2018-02-25T12:27:42.914Z,-0.60
2018-02-25T12:30:10.382Z,-0.50
2018-02-25T12:32:37.818Z,-0.40
2018-02-25T12:35:05.252Z,-0.20
2018-02-25T12:37:32.673Z,0.00
2018-02-25T12:40:00.102Z,0.10
2018-02-25T12:42:27.546Z,0.00
2018-02-25T12:44:55.006Z,-0.40
2018-02-25T12:47:22.454Z,-0.50
2018-02-25T12:49:49.933Z,-0.50
2018-02-25T12:52:17.383Z,-0.30
2018-02-25T12:54:44.815Z,-0.30
2018-02-25T12:57:12.262Z,-0.40
2018-02-25T12:59:39.686Z,-0.40
2018-02-25T13:02:07.110Z,-0.50
2018-02-25T13:04:34.576Z,-0.60
2018-02-25T13:07:02.027Z,-0.80
2018-02-25T13:09:29.478Z,-0.80
2018-02-25T13:11:57.026Z,-0.80
2018-02-25T13:14:24.462Z,-0.90
2018-02-25T13:16:51.928Z,-1.00
2018-02-25T13:19:19.350Z,-0.90
2018-02-25T13:21:47.585Z,-0.60
2018-02-25T13:24:15.021Z,-0.60
2018-02-25T13:26:42.472Z,-0.40
2018-02-25T13:29:10.050Z,-0.40
2018-02-25T13:31:37.495Z,-0.40
2018-02-25T13:34:04.947Z,-0.50
2018-02-25T13:36:32.391Z,-0.60
2018-02-25T13:38:59.834Z,-0.70
2018-02-25T13:41:27.284Z,-0.80
2018-02-25T13:43:54.713Z,-0.90
2018-02-25T13:46:22.149Z,-0.90
2018-02-25T13:48:49.599Z,-0.70
2018-02-25T13:51:17.050Z,-0.70
2018-02-25T13:53:44.503Z,-0.80
2018-02-25T13:56:11.939Z,-0.90
2018-02-25T13:58:39.371Z,-0.90
2018-02-25T14:01:06.818Z,-0.80
2018-02-25T14:03:34.371Z,-0.80
2018-02-25T14:06:01.826Z,-1.00
2018-02-25T14:08:29.291Z,-0.90
2018-02-25T14:10:56.723Z,-0.80
2018-02-25T14:13:24.150Z,-0.90
2018-02-25T14:15:51.578Z,-0.80
2018-02-25T14:18:19.827Z,-0.80
2018-02-25T14:20:47.257Z,-0.90
2018-02-25T14:23:14.694Z,-1.10
2018-02-25T14:25:42.119Z,-1.00
2018-02-25T14:28:10.334Z,-1.00
2018-02-25T14:30:37.769Z,-1.00
2018-02-25T14:33:05.208Z,-1.00
2018-02-25T14:35:33.407Z,-0.80
2018-02-25T14:38:00.848Z,-0.80
2018-02-25T14:40:28.454Z,-0.70
2018-02-25T14:42:55.911Z,-0.70
2018-02-25T14:45:23.343Z,-0.90
2018-02-25T14:47:50.793Z,-0.80
2018-02-25T14:50:18.214Z,-0.70
2018-02-25T14:52:46.417Z,-0.70
2018-02-25T14:55:13.876Z,-0.70
2018-02-25T14:57:41.375Z,-0.70
2018-02-25T15:00:08.798Z,-0.80
2018-02-25T15:02:36.270Z,-0.90
2018-02-25T15:05:03.722Z,-0.80
2018-02-25T15:07:31.172Z,-0.90
2018-02-25T15:09:58.602Z,-0.70
2018-02-25T15:12:26.059Z,-0.70
2018-02-25T15:14:53.528Z,-0.80
2018-02-25T15:17:20.946Z,-0.70
2018-02-25T15:19:49.169Z,-0.70
2018-02-25T15:22:16.627Z,-0.80
2018-02-25T15:24:44.086Z,-0.80
2018-02-25T15:27:11.546Z,-0.70
2018-02-25T15:29:39.019Z,-0.70
2018-02-25T15:32:06.457Z,-0.80
2018-02-25T15:34:33.933Z,-0.80
2018-02-25T15:37:01.358Z,-0.90
2018-02-25T15:39:28.807Z,-0.90
2018-02-25T15:41:56.234Z,-1.00
2018-02-25T15:44:24.464Z,-1.20
2018-02-25T15:46:51.899Z,-1.30
2018-02-25T15:49:19.360Z,-1.20
2018-02-25T15:51:46.806Z,-1.20
2018-02-25T15:54:15.145Z,-1.20
2018-02-25T15:56:43.392Z,-1.30
2018-02-25T15:59:10.833Z,-1.30
2018-02-25T16:01:38.304Z,-1.20
2018-02-25T16:04:05.859Z,-1.20
2018-02-25T16:06:33.324Z,-1.30
2018-02-25T16:09:00.762Z,-1.20
2018-02-25T16:11:28.273Z,-1.30
2018-02-25T16:13:55.662Z,-1.30
2018-02-25T16:16:23.107Z,-1.30
2018-02-25T16:18:50.573Z,-1.40
2018-02-25T16:21:18.028Z,-1.50
2018-02-25T16:23:45.483Z,-1.50
2018-02-25T16:26:12.926Z,-1.60
2018-02-25T16:28:40.369Z,-1.40
2018-02-25T16:31:08.574Z,-1.40
2018-02-25T16:33:36.014Z,-1.50
2018-02-25T16:36:03.478Z,-1.50
2018-02-25T16:38:30.915Z,-1.40
2018-02-25T16:40:59.126Z,-1.50
2018-02-25T16:43:26.565Z,-1.60
2018-02-25T16:45:54.005Z,-1.50
2018-02-25T16:48:22.221Z,-1.60
2018-02-25T16:50:49.687Z,-1.70
2018-02-25T16:53:17.176Z,-1.70
2018-02-25T16:55:44.573Z,-1.70
2018-02-25T16:58:12.047Z,-1.70
2018-02-25T17:00:39.509Z,-1.70
2018-02-25T17:03:06.979Z,-1.80
2018-02-25T17:05:34.408Z,-1.80
2018-02-25T17:08:01.856Z,-1.80
2018-02-25T17:10:29.277Z,-1.80
2018-02-25T17:12:57.474Z,-1.90
2018-02-25T17:15:24.965Z,-2.00
2018-02-25T17:17:52.357Z,-2.00
2018-02-25T17:20:20.556Z,-2.10
2018-02-25T17:22:47.981Z,-2.10
2018-02-25T17:25:16.200Z,-2.00
2018-02-25T17:27:43.663Z,-2.00
2018-02-25T17:30:11.109Z,-1.90
2018-02-25T17:32:38.543Z,-1.90
2018-02-25T17:35:06.011Z,-2.00
2018-02-25T17:37:33.458Z,-1.90
2018-02-25T17:40:01.740Z,-1.90
2018-02-25T17:42:29.146Z,-2.00
2018-02-25T17:44:56.582Z,-2.00
2018-02-25T17:47:24.017Z,-2.00
2018-02-25T17:49:51.446Z,-1.90
2018-02-25T17:52:19.655Z,-1.90
2018-02-25T17:54:47.105Z,-2.00
2018-02-25T17:57:14.555Z,-2.00
2018-02-25T17:59:41.986Z,-2.00
2018-02-25T18:02:10.230Z,-2.10
2018-02-25T18:04:37.658Z,-2.10
2018-02-25T18:07:05.103Z,-2.20
2018-02-25T18:09:32.517Z,-2.20
2018-02-25T18:11:59.970Z,-2.20
2018-02-25T18:14:27.415Z,-2.10
2018-02-25T18:16:54.842Z,-2.10
2018-02-25T18:19:22.286Z,-2.10
2018-02-25T18:21:49.722Z,-2.10
2018-02-25T18:24:17.950Z,-2.10
2018-02-25T18:26:45.375Z,-2.20
2018-02-25T18:29:12.815Z,-2.20
2018-02-25T18:31:40.332Z,-2.10
2018-02-25T18:34:07.750Z,-2.00
2018-02-25T18:36:35.178Z,-2.10
2018-02-25T18:39:03.388Z,-2.10
2018-02-25T18:41:30.818Z,-2.20
2018-02-25T18:43:58.258Z,-2.10
2018-02-25T18:46:26.453Z,-2.20
2018-02-25T18:48:53.956Z,-2.20
2018-02-25T18:51:21.389Z,-2.10
2018-02-25T18:53:48.871Z,-2.00
2018-02-25T18:56:16.258Z,-2.00
2018-02-25T18:58:44.468Z,-1.90
2018-02-25T19:01:11.890Z,-2.00
2018-02-25T19:03:40.087Z,-2.10
2018-02-25T19:06:07.523Z,-2.10
2018-02-25T19:08:35.722Z,-2.10
2018-02-25T19:11:03.166Z,-2.10
2018-02-25T19:13:30.653Z,-2.00
2018-02-25T19:15:58.110Z,-2.10
2018-02-25T19:18:25.577Z,-2.10
2018-02-25T19:20:53.023Z,-2.20
2018-02-25T19:23:20.458Z,-2.10
2018-02-25T19:25:47.922Z,-2.10
2018-02-25T19:28:15.393Z,-2.10
2018-02-25T19:30:42.858Z,-2.20
2018-02-25T19:33:10.315Z,-2.20
2018-02-25T19:35:43.551Z,-2.20
2018-02-25T19:38:17.531Z,-2.20
2018-02-25T19:40:50.698Z,-2.20
2018-02-25T19:43:18.126Z,-2.20
2018-02-25T19:45:45.580Z,-2.20
2018-02-25T19:48:13.035Z,-2.10
2018-02-25T19:50:40.480Z,-2.10
2018-02-25T19:53:08.695Z,-2.20
2018-02-25T19:55:36.138Z,-2.20
2018-02-25T19:58:03.573Z,-2.10
2018-02-25T20:00:31.010Z,-2.10
2018-02-25T20:02:59.219Z,-2.20
2018-02-25T20:05:26.703Z,-2.30
2018-02-25T20:07:54.138Z,-2.20
2018-02-25T20:10:21.585Z,-2.30
2018-02-25T20:12:49.175Z,-2.30
2018-02-25T20:15:16.614Z,-2.40
2018-02-25T20:17:44.055Z,-2.40
2018-02-25T20:20:11.514Z,-2.40
2018-02-25T20:22:38.956Z,-2.50
2018-02-25T20:25:06.436Z,-2.50
2018-02-25T20:27:33.902Z,-2.50
2018-02-25T20:30:01.351Z,-2.50
2018-02-25T20:32:28.919Z,-2.60
2018-02-25T20:34:56.366Z,-2.60
2018-02-25T20:37:23.824Z,-2.60
2018-02-25T20:39:51.294Z,-2.50
2018-02-25T20:42:18.757Z,-2.40
2018-02-25T20:44:46.190Z,-2.40
2018-02-25T20:47:13.668Z,-2.50
2018-02-25T20:49:41.138Z,-2.70
2018-02-25T20:52:08.667Z,-2.70
2018-02-25T20:54:36.089Z,-2.80
2018-02-25T20:57:04.298Z,-2.80
2018-02-25T20:59:31.730Z,-2.90
2018-02-25T21:01:59.222Z,-2.70
2018-02-25T21:04:26.673Z,-2.70
2018-02-25T21:06:54.185Z,-2.80
2018-02-25T21:09:21.586Z,-2.80
2018-02-25T21:11:49.019Z,-2.90
2018-02-25T21:14:16.457Z,-2.90
2018-02-25T21:16:44.649Z,-3.00
2018-02-25T21:19:12.133Z,-3.10
2018-02-25T21:21:39.583Z,-3.00
2018-02-25T21:24:07.022Z,-3.00
2018-02-25T21:26:34.475Z,-3.10
2018-02-25T21:29:01.964Z,-3.10
2018-02-25T21:31:29.422Z,-3.10
2018-02-25T21:33:56.953Z,-3.10
2018-02-25T21:36:24.394Z,-3.20
2018-02-25T21:38:51.842Z,-3.10
2018-02-25T21:41:19.414Z,-3.20
2018-02-25T21:43:46.923Z,-3.20
2018-02-25T21:46:14.378Z,-3.20
2018-02-25T21:48:41.909Z,-3.20
2018-02-25T21:51:09.557Z,-3.40
2018-02-25T21:53:40.944Z,-3.40
2018-02-25T21:56:13.982Z,-3.40
2018-02-25T21:58:47.197Z,-3.30
2018-02-25T22:01:20.458Z,-3.30
2018-02-25T22:03:47.901Z,-3.20
2018-02-25T22:06:16.090Z,-3.20
2018-02-25T22:08:43.686Z,-3.30
2018-02-25T22:11:11.115Z,-3.30
2018-02-25T22:13:38.545Z,-3.20
2018-02-25T22:16:06.753Z,-3.10
2018-02-25T22:18:34.178Z,-3.10
2018-02-25T22:21:02.907Z,-2.90
2018-02-25T22:23:30.346Z,-3.00
2018-02-25T22:25:57.778Z,-2.90
2018-02-25T22:28:25.277Z,-2.90
2018-02-25T22:30:52.736Z,-3.00
2018-02-25T22:33:20.207Z,-3.00
2018-02-25T22:35:47.653Z,-3.00
2018-02-25T22:38:15.084Z,-3.00
2018-02-25T22:40:42.534Z,-2.90
2018-02-25T22:43:09.965Z,-3.00
2018-02-25T22:45:38.186Z,-3.10
2018-02-25T22:48:05.627Z,-3.10
2018-02-25T22:50:33.074Z,-3.00
2018-02-25T22:53:00.543Z,-3.10
2018-02-25T22:55:27.986Z,-3.20
2018-02-25T22:57:55.444Z,-3.10
2018-02-25T23:00:23.658Z,-3.10
2018-02-25T23:02:51.095Z,-3.10
2018-02-25T23:05:18.574Z,-3.10
2018-02-25T23:07:46.010Z,-3.20
2018-02-25T23:10:13.460Z,-3.30
2018-02-25T23:12:40.893Z,-3.30
2018-02-25T23:15:08.348Z,-3.20
2018-02-25T23:17:35.775Z,-3.30
2018-02-25T23:20:03.228Z,-3.30
2018-02-25T23:22:30.670Z,-3.30
2018-02-25T23:24:58.107Z,-3.30
2018-02-25T23:27:25.534Z,-3.20
2018-02-25T23:29:52.954Z,-3.30
2018-02-25T23:32:20.397Z,-3.30
2018-02-25T23:34:47.834Z,-3.30
2018-02-25T23:37:15.290Z,-3.30
2018-02-25T23:39:42.737Z,-3.30
2018-02-25T23:42:10.188Z,-3.30
2018-02-25T23:44:37.636Z,-3.40
2018-02-25T23:47:05.114Z,-3.40
2018-02-25T23:49:32.554Z,-3.40
2018-02-25T23:51:59.992Z,-3.50
2018-02-25T23:54:27.462Z,-3.50
2018-02-25T23:56:54.950Z,-3.60
2018-02-25T23:59:22.390Z,-3.50
